createdAt,value
2019-03-09T00:01:18.147Z,31.62
2019-03-09T00:06:22.394Z,30.25
2019-03-09T00:11:26.810Z,32.50
2019-03-09T00:16:35.523Z,37.00
2019-03-09T00:21:44.077Z,36.38
2019-03-09T00:26:51.210Z,38.25
2019-03-09T00:31:59.163Z,43.78
2019-03-09T00:37:06.127Z,36.13
2019-03-09T00:42:13.189Z,36.50
2019-03-09T00:47:19.991Z,34.00
2019-03-09T00:52:29.307Z,33.20
2019-03-09T00:57:38.722Z,35.22
2019-03-09T01:02:48.337Z,34.56
2019-03-09T01:07:56.403Z,36.11
2019-03-09T01:13:05.482Z,30.62
2019-03-09T01:18:08.987Z,26.67
2019-03-09T01:23:13.690Z,28.50
2019-03-09T01:28:19.943Z,27.62
2019-03-09T01:33:27.131Z,24.87
2019-03-09T01:38:31.783Z,30.00
2019-03-09T01:43:36.252Z,28.00
2019-03-09T01:48:44.247Z,31.00
2019-03-09T01:53:53.975Z,26.25
2019-03-09T01:59:01.366Z,35.38
2019-03-09T02:04:10.362Z,34.25
2019-03-09T02:09:17.669Z,38.50
2019-03-09T02:14:26.738Z,34.00
2019-03-09T02:19:35.579Z,36.38
2019-03-09T02:24:42.906Z,33.63
2019-03-09T02:29:50.010Z,27.87
2019-03-09T02:34:54.619Z,30.00
2019-03-09T02:39:58.321Z,34.50
2019-03-09T02:45:15.383Z,30.88
2019-03-09T02:50:26.111Z,28.25
2019-03-09T02:55:33.303Z,29.25
2019-03-09T03:00:36.963Z,22.00
2019-03-09T03:05:45.696Z,27.00
2019-03-09T03:10:50.989Z,19.29
2019-03-09T03:15:57.004Z,17.87
2019-03-09T03:21:02.251Z,18.86
2019-03-09T03:26:05.992Z,27.67
2019-03-09T03:31:14.065Z,28.38
2019-03-09T03:36:20.752Z,26.67
2019-03-09T03:41:24.986Z,22.00
2019-03-09T03:46:29.220Z,42.50
2019-03-09T03:51:39.440Z,24.91
2019-03-09T03:56:47.338Z,26.50
2019-03-09T04:01:54.195Z,20.37
2019-03-09T04:06:58.172Z,20.00
2019-03-09T04:12:01.579Z,23.00
2019-03-09T04:17:07.400Z,21.75
2019-03-09T04:22:13.175Z,18.71
2019-03-09T04:27:19.680Z,20.12
2019-03-09T04:32:25.390Z,18.43
2019-03-09T04:37:28.947Z,19.25
2019-03-09T04:42:32.477Z,15.00
2019-03-09T04:47:36.038Z,14.50
2019-03-09T04:52:40.624Z,11.71
2019-03-09T04:57:46.771Z,12.71
2019-03-09T05:02:53.174Z,12.00
2019-03-09T05:07:58.585Z,10.83
2019-03-09T05:13:05.617Z,13.00
2019-03-09T05:18:11.182Z,14.00
2019-03-09T05:23:18.202Z,14.89
2019-03-09T05:28:22.875Z,10.71
2019-03-09T05:33:29.319Z,15.43
2019-03-09T05:38:35.547Z,12.43
2019-03-09T05:43:41.764Z,13.57
2019-03-09T05:48:47.936Z,14.29
2019-03-09T05:53:54.085Z,12.29
2019-03-09T05:59:00.432Z,13.14
2019-03-09T06:04:04.404Z,13.00
2019-03-09T06:09:09.797Z,12.57
2019-03-09T06:14:16.251Z,14.14
2019-03-09T06:19:20.720Z,9.86
2019-03-09T06:24:27.410Z,11.29
2019-03-09T06:29:33.257Z,10.17
2019-03-09T06:34:37.086Z,10.33
2019-03-09T06:39:41.967Z,9.83
2019-03-09T06:44:45.307Z,8.60
2019-03-09T06:49:50.394Z,13.29
2019-03-09T06:54:53.970Z,9.00
2019-03-09T07:00:02.628Z,8.00
2019-03-09T07:05:06.702Z,9.17
2019-03-09T07:10:10.447Z,9.00
2019-03-09T07:15:18.273Z,7.00
2019-03-09T07:20:22.087Z,8.00
2019-03-09T07:25:29.297Z,7.22
2019-03-09T07:30:33.222Z,7.00
2019-03-09T07:35:36.754Z,8.00
2019-03-09T07:40:44.333Z,8.50
2019-03-09T07:45:48.324Z,7.80
2019-03-09T07:50:55.615Z,7.33
2019-03-09T07:56:00.491Z,6.00
2019-03-09T08:01:03.700Z,8.00
2019-03-09T08:06:10.892Z,5.00
2019-03-09T08:11:19.177Z,7.50
2019-03-09T08:16:22.946Z,6.33
2019-03-09T08:21:30.156Z,4.33
2019-03-09T08:26:34.990Z,5.67
2019-03-09T08:31:39.733Z,8.00
2019-03-09T08:36:45.542Z,6.80
2019-03-09T08:41:49.482Z,7.00
2019-03-09T08:46:55.960Z,5.80
2019-03-09T08:52:00.814Z,5.83
2019-03-09T08:57:05.705Z,7.00
2019-03-09T09:02:12.466Z,8.00
2019-03-09T09:07:16.758Z,3.00
2019-03-09T09:12:25.215Z,13.57
2019-03-09T09:17:30.986Z,8.67
2019-03-09T09:22:34.460Z,9.00
2019-03-09T09:27:40.238Z,11.00
2019-03-09T09:32:48.531Z,6.60
2019-03-09T09:37:53.460Z,5.33
2019-03-09T09:42:56.871Z,5.00
2019-03-09T09:48:00.095Z,6.33
2019-03-09T09:53:03.638Z,8.00
2019-03-09T09:58:06.954Z,6.67
2019-03-09T10:03:10.259Z,4.00
2019-03-09T10:08:13.532Z,5.33
2019-03-09T10:13:18.433Z,6.00
2019-03-09T10:18:21.642Z,5.00
2019-03-09T10:23:24.918Z,4.67
2019-03-09T10:28:28.856Z,5.20
2019-03-09T10:33:32.973Z,6.50
2019-03-09T10:38:36.314Z,5.00
2019-03-09T10:43:39.538Z,5.00
2019-03-09T10:48:42.842Z,6.00
2019-03-09T10:53:50.232Z,5.00
2019-03-09T10:58:58.363Z,4.40
2019-03-09T11:04:03.239Z,5.67
2019-03-09T11:09:08.030Z,6.00
2019-03-09T11:14:11.990Z,6.00
2019-03-09T11:19:15.830Z,6.00
2019-03-09T11:24:19.507Z,6.50
2019-03-09T11:29:22.498Z,5.00
2019-03-09T11:34:28.183Z,7.80
2019-03-09T11:39:32.770Z,4.33
2019-03-09T11:44:36.634Z,4.00
2019-03-09T11:49:39.790Z,6.33
2019-03-09T11:54:42.984Z,4.00
2019-03-09T11:59:46.175Z,6.33
2019-03-09T12:04:52.664Z,4.00
2019-03-09T12:10:00.590Z,4.00
2019-03-09T12:15:06.131Z,4.20
2019-03-09T12:20:16.186Z,8.67
2019-03-09T12:25:19.469Z,9.00
2019-03-09T12:30:26.407Z,13.29
2019-03-09T12:35:29.934Z,7.00
2019-03-09T12:40:33.530Z,6.00
2019-03-09T12:45:36.976Z,9.33
2019-03-09T12:50:43.838Z,8.83
2019-03-09T12:55:47.374Z,8.17
2019-03-09T13:00:55.134Z,8.50
2019-03-09T13:05:58.711Z,8.33
2019-03-09T13:11:02.886Z,9.00
2019-03-09T13:16:10.660Z,7.00
2019-03-09T13:21:14.738Z,9.00
2019-03-09T13:26:18.155Z,9.40
2019-03-09T13:31:25.679Z,8.00
2019-03-09T13:36:30.598Z,8.00
2019-03-09T13:41:34.748Z,9.00
2019-03-09T13:46:40.859Z,8.60
2019-03-09T13:51:44.991Z,10.00
2019-03-09T13:56:53.360Z,9.00
2019-03-09T14:01:56.970Z,8.00
2019-03-09T14:07:00.379Z,7.33
2019-03-09T14:12:03.666Z,8.00
2019-03-09T14:17:11.916Z,10.10
2019-03-09T14:22:15.223Z,8.00
2019-03-09T14:27:22.776Z,8.89
2019-03-09T14:32:31.194Z,6.50
2019-03-09T14:37:36.239Z,11.50
2019-03-09T14:42:41.286Z,8.33
2019-03-09T14:47:45.634Z,12.33
2019-03-09T14:52:51.408Z,10.71
2019-03-09T14:57:59.791Z,12.29
2019-03-09T15:03:07.753Z,32.89
2019-03-09T15:08:12.298Z,13.17
2019-03-09T15:13:17.073Z,12.86
2019-03-09T15:18:22.446Z,16.71
2019-03-09T15:23:27.171Z,13.00
2019-03-09T15:28:35.313Z,36.00
2019-03-09T15:33:38.646Z,11.00
2019-03-09T15:38:46.287Z,10.67
2019-03-09T15:43:49.847Z,16.75
2019-03-09T15:48:55.923Z,28.25
2019-03-09T15:54:01.237Z,18.43
2019-03-09T15:59:07.307Z,21.00
2019-03-09T16:04:15.922Z,16.60
2019-03-09T16:09:19.731Z,13.67
2019-03-09T16:14:25.210Z,20.29
2019-03-09T16:19:28.998Z,15.25
2019-03-09T16:24:34.525Z,12.86
2019-03-09T16:29:40.466Z,12.71
2019-03-09T16:34:45.710Z,13.00
2019-03-09T16:39:51.867Z,16.57
2019-03-09T16:44:55.374Z,20.50
2019-03-09T16:50:01.699Z,16.29
2019-03-09T16:55:06.364Z,25.00
2019-03-09T17:00:15.798Z,28.50
2019-03-09T17:05:19.150Z,10.60
2019-03-09T17:10:26.204Z,15.14
2019-03-09T17:15:29.854Z,27.25
2019-03-09T17:20:36.664Z,17.57
2019-03-09T17:25:42.723Z,12.29
2019-03-09T17:30:47.778Z,14.17
2019-03-09T17:35:53.951Z,28.14
2019-03-09T17:41:00.129Z,12.00
2019-03-09T17:46:05.519Z,11.33
2019-03-09T17:51:09.906Z,17.71
2019-03-09T17:56:15.458Z,27.29
2019-03-09T18:01:20.237Z,42.86
2019-03-09T18:06:29.132Z,19.71
2019-03-09T18:11:33.246Z,9.67
2019-03-09T18:16:37.139Z,13.00
2019-03-09T18:21:54.540Z,16.14
2019-03-09T18:27:08.255Z,19.67
2019-03-09T18:32:18.240Z,14.21
2019-03-09T18:37:23.727Z,12.00
2019-03-09T18:43:25.510Z,18.35
2019-03-09T18:48:32.842Z,19.57
2019-03-09T18:54:16.952Z,21.71
2019-03-09T18:59:32.783Z,23.43
2019-03-09T19:04:36.331Z,12.00
2019-03-09T19:09:45.644Z,16.12
2019-03-09T19:14:54.104Z,14.38
2019-03-09T19:19:59.790Z,14.86
2019-03-09T19:25:03.895Z,15.67
2019-03-09T19:30:11.069Z,17.86
2019-03-09T19:35:16.578Z,20.57
2019-03-09T19:40:23.244Z,12.71
2019-03-09T19:45:26.711Z,17.00
2019-03-09T19:50:33.811Z,12.89
2019-03-09T19:55:41.764Z,20.37
2019-03-09T20:00:47.315Z,23.40
2019-03-09T20:05:51.498Z,14.00
2019-03-09T20:10:56.888Z,11.00
2019-03-09T20:15:59.849Z,20.50
2019-03-09T20:21:07.414Z,14.29
2019-03-09T20:26:15.050Z,19.86
2019-03-09T20:31:20.819Z,11.67
2019-03-09T20:36:24.731Z,13.00
2019-03-09T20:41:29.982Z,17.86
2019-03-09T20:46:41.914Z,12.25
2019-03-09T20:51:45.059Z,15.00
2019-03-09T20:56:53.478Z,14.14
2019-03-09T21:01:57.101Z,16.00
2019-03-09T21:07:01.490Z,16.00
2019-03-09T21:12:06.126Z,13.71
2019-03-09T21:17:13.191Z,14.78
2019-03-09T21:22:18.958Z,27.37
2019-03-09T21:27:24.386Z,20.86
2019-03-09T21:32:28.404Z,13.33
2019-03-09T21:37:41.116Z,10.60
2019-03-09T21:42:48.654Z,20.62
2019-03-09T21:47:53.995Z,13.50
2019-03-09T21:53:02.567Z,9.67
2019-03-09T21:58:06.760Z,10.80
2019-03-09T22:03:11.635Z,14.00
2019-03-09T22:08:19.178Z,16.50
2019-03-09T22:13:25.375Z,10.00
2019-03-09T22:18:34.074Z,14.71
2019-03-09T22:23:44.294Z,9.67
2019-03-09T22:28:51.362Z,15.40
2019-03-09T22:34:06.730Z,15.50
2019-03-09T22:39:13.209Z,32.56
2019-03-09T22:44:26.199Z,11.31
2019-03-09T22:49:38.249Z,17.33
2019-03-09T22:54:40.460Z,9.67
2019-03-09T22:59:45.007Z,12.57
2019-03-09T23:04:48.679Z,41.33
2019-03-09T23:10:04.020Z,15.33
2019-03-09T23:15:16.250Z,6.73
2019-03-09T23:20:24.542Z,14.00
2019-03-09T23:25:33.354Z,12.40
2019-03-09T23:30:38.311Z,5.00
2019-03-09T23:35:43.135Z,20.80
2019-03-09T23:40:52.643Z,12.60
2019-03-09T23:46:03.192Z,10.22
2019-03-09T23:51:12.079Z,33.00
2019-03-09T23:56:17.480Z,8.67
